Aeroporto :
LOGIN :

Iscrizione | Disclaimer

   EN    FR    IT 

 










Sommario :    VFR   VFR Marginale   IFR   IFR Intensivo   IFR Molto Intensivo
Visibilità : 
Base nubi : 
>= 8 km
>= 3000ft
5 / 8 km
1000 / 3000 ft
1500m / 5 km
500 / 1000 ft
800 / 1500m
200 / 500 ft
< 800m
< 200 ft
Simboli :   Temporali  Nebbia  Neve Forte  Precipitazioni Forti  Vento > 20 kt
SIGMETs :   Varie  Temporali  Ghiacco  Turbolenza  Onda orograficha  Ceneri Vulcaniche







- Altitudine del aeroporto : 408 ft
- Codice IATA : FKB


EDSB - Karlsruhe Baden Baden

ULTIMO METAR :
  • 180750Z VRB01KT CAVOK 00/M01 Q1022

METARs OBSOLETI :
  • 180720Z 00000KT CAVOK M02/M03 Q1022
  • 180650Z 17003KT 130V210 CAVOK M02/M03 Q1022
  • 180620Z 17001KT CAVOK M02/M03 Q1022
  • 180550Z 00000KT 9000 NSC M03/M03 Q1022
  • 180520Z VRB02KT CAVOK M02/M03 Q1022
  • 180450Z VRB01KT CAVOK M02/M03 Q1022

TAF TAF EDSB
Valido dal 18 a 06 ore il 19 a 06 ore UTC


180530Z 1806/1906 VRB03KT CAVOK
PROB30
TEMPO 1806/1808 2000 BCFG
Nessun NOTAM noto per questo aeroporto.



MetMap, La meteo Aeronautica in un colpo d'occhio ! - Copyright ORBIFLY Dicembre 2007 - Disclaimer

ORBIFLY MET'MAP TEAM :

Programmazione e sviluppo : Alexandra Zaïnal
Concezione e sviluppo : Baudouin d'Aumeries
Co-Programmazione e sviluppo : Marc-Olivier Méhu
Supporto tecnico e logistico : Manuel Goepfert
Aiuto per la traduzione : Arnaldo La Scala

Contatto : metmap@orbifly.com




FONTI E CREDITI :

   NOAA